createdAt,value
2022-12-08T00:01:04.822Z,3.1
2022-12-08T00:11:05.074Z,3.1
2022-12-08T00:21:05.242Z,3.2
2022-12-08T00:31:06.088Z,3.2
2022-12-08T00:41:06.981Z,3.2
2022-12-08T00:51:07.658Z,3.2
2022-12-08T01:01:07.875Z,3.3
2022-12-08T01:11:08.615Z,3.3
2022-12-08T01:21:08.971Z,3.3
2022-12-08T01:31:09.882Z,3.2
2022-12-08T01:41:10.027Z,3.2
2022-12-08T01:51:10.258Z,3.1
2022-12-08T02:11:11.531Z,3.2
2022-12-08T02:21:12.525Z,3.2
2022-12-08T02:31:13.326Z,3.2
2022-12-08T02:41:13.720Z,3.2
2022-12-08T02:51:13.975Z,3.2
2022-12-08T03:01:14.378Z,3.1
2022-12-08T03:11:15.345Z,3.2
2022-12-08T03:21:15.533Z,3.2
2022-12-08T03:31:15.974Z,3.2
2022-12-08T03:41:16.881Z,3.2
2022-12-08T04:01:18.090Z,3.2
2022-12-08T04:11:18.231Z,3.2
2022-12-08T04:21:18.969Z,3.2
2022-12-08T04:31:19.823Z,3.2
2022-12-08T04:41:20.156Z,3.2
2022-12-08T04:51:20.513Z,3.2
2022-12-08T05:01:20.862Z,3.2
2022-12-08T05:11:21.278Z,3.2
2022-12-08T05:21:21.990Z,3.1
2022-12-08T05:31:22.327Z,3.1
2022-12-08T05:41:23.302Z,3
2022-12-08T05:51:24.092Z,3.1
2022-12-08T06:01:24.678Z,3.1
2022-12-08T06:11:25.315Z,3.1
2022-12-08T06:21:26.068Z,3.1
2022-12-08T06:31:26.757Z,3.1
2022-12-08T06:41:27.476Z,3
2022-12-08T06:51:27.579Z,3
2022-12-08T07:01:27.902Z,2.9
2022-12-08T07:11:28.320Z,2.9
2022-12-08T07:21:28.599Z,2.9
2022-12-08T07:51:30.532Z,2.9
2022-12-08T08:01:31.301Z,3
2022-12-08T08:11:32.107Z,3
2022-12-08T08:21:45.307Z,3
2022-12-08T08:31:32.980Z,3
2022-12-08T08:32:16.494Z,3
2022-12-08T08:51:40.085Z,2.9
2022-12-08T09:01:40.845Z,2.9
2022-12-08T09:11:41.023Z,2.8
2022-12-08T09:21:41.767Z,2.8
2022-12-08T09:31:42.742Z,2.8
2022-12-08T09:41:48.007Z,2.7
2022-12-08T09:51:44.280Z,2.8
2022-12-08T10:01:45.114Z,2.7
2022-12-08T10:11:46.120Z,2.7
2022-12-08T10:21:46.658Z,2.7
2022-12-08T10:41:47.716Z,2.8
2022-12-08T10:51:48.573Z,2.8
2022-12-08T11:01:49.715Z,2.8
2022-12-08T11:11:50.065Z,2.8
2022-12-08T11:21:50.904Z,2.8
2022-12-08T11:31:51.882Z,2.5
2022-12-08T11:41:52.031Z,2.3
2022-12-08T11:51:52.323Z,2.3
2022-12-08T12:01:53.096Z,2.3
2022-12-08T12:11:53.816Z,2.4
2022-12-08T12:21:54.566Z,2.4
2022-12-08T12:31:55.435Z,2.4
2022-12-08T12:41:55.930Z,2.5
2022-12-08T12:51:56.422Z,2.4
2022-12-08T13:11:57.320Z,2.2
2022-12-08T13:31:57.884Z,2.2
2022-12-08T14:11:59.076Z,2.5
2022-12-08T14:21:59.417Z,2.5
2022-12-08T14:31:59.802Z,2.4
2022-12-08T14:42:00.450Z,2.4
2022-12-08T14:52:01.188Z,2.3
2022-12-08T15:02:01.852Z,2.2
2022-12-08T15:12:02.816Z,2.2
2022-12-08T15:22:03.173Z,2.1
2022-12-08T15:32:04.115Z,2.2
2022-12-08T15:42:04.773Z,2.2
2022-12-08T15:52:11.385Z,2.2
2022-12-08T16:02:05.923Z,2.3
2022-12-08T16:12:08.737Z,2.3
2022-12-08T16:32:07.895Z,2.3
2022-12-08T16:42:08.394Z,2.3
2022-12-08T16:52:09.049Z,2.3
2022-12-08T17:02:13.718Z,2.3
2022-12-08T17:12:10.436Z,2.3
2022-12-08T17:22:11.155Z,2.3
2022-12-08T17:32:11.620Z,2.3
2022-12-08T17:42:12.206Z,2.4
2022-12-08T18:02:13.030Z,2.3
2022-12-08T18:12:13.190Z,1.8
2022-12-08T18:22:13.387Z,1.9
2022-12-08T18:32:13.804Z,2
2022-12-08T18:42:13.981Z,2.1
2022-12-08T18:52:14.387Z,2.1
2022-12-08T19:02:15.055Z,2.3
2022-12-08T19:12:15.891Z,2.3
2022-12-08T19:22:16.558Z,2.4
2022-12-08T19:32:17.583Z,2.4
2022-12-08T19:42:18.503Z,2.5
2022-12-08T19:52:19.304Z,2.5
2022-12-08T20:02:19.981Z,2.5
2022-12-08T20:12:20.919Z,2.5
2022-12-08T20:22:21.408Z,2.5
2022-12-08T20:32:22.049Z,2.4
2022-12-08T20:42:22.339Z,2.4
2022-12-08T20:52:22.756Z,2.3
2022-12-08T21:02:22.883Z,2.3
2022-12-08T21:12:23.954Z,2.3
2022-12-08T21:22:24.788Z,2.2
2022-12-08T21:32:30.033Z,2.2
2022-12-08T21:42:27.921Z,2
2022-12-08T21:52:25.166Z,2
2022-12-08T22:02:25.734Z,2
2022-12-08T22:12:26.128Z,2
2022-12-08T22:22:26.116Z,2.1
2022-12-08T22:32:26.536Z,2
2022-12-08T22:42:26.874Z,2
2022-12-08T22:52:27.274Z,2
2022-12-08T23:02:28.004Z,2
2022-12-08T23:12:28.268Z,1.9
2022-12-08T23:22:29.189Z,1.6
2022-12-08T23:32:29.384Z,1.6
2022-12-08T23:42:30.006Z,1.5
2022-12-08T23:52:30.820Z,1.6
